Raymond, Georgia
Current Conditions -  °F | °C
As of 1:55 AM on Friday 28 Nov 2014 (Local Time) from KCCO Reporting Station
Clear Clear  
Wind Chill:   Ceiling: Unl
Heat Index:   Visibility: 10mi
Dew Point: -3°   Wind: 3mph
Humidity: 79%   Direction: 330°NNW
Pressure: 30.37"   Gusts: NA
Location:  33.3877°N, 84.8596°W
Report Text: KCCO 280655Z AUTO 33003KT 10SM CLR 01/M03 A3037 RMK AO2 T00061027
Loading
Personal Weather Stations






























Interactive Weather Map New forecast layout! Learn more

10-Day Weather Forecast

Advertisements
Track Severe Weather on mobile